createdAt,value
2018-10-18T04:01:00.219Z,48.30
2018-10-18T04:02:00.087Z,25.60
2018-10-18T04:03:52.780Z,25.60
2018-10-18T04:04:52.664Z,25.20
2018-10-18T04:06:45.352Z,25.50
2018-10-18T04:07:45.226Z,23.20
2018-10-18T04:09:37.905Z,24.10
2018-10-18T04:10:37.798Z,24.90
2018-10-18T04:12:30.506Z,25.30
2018-10-18T04:13:30.370Z,24.60
2018-10-18T04:15:23.049Z,24.20
2018-10-18T04:16:22.944Z,23.80
2018-10-18T04:18:15.637Z,23.40
2018-10-18T04:19:15.507Z,23.60
2018-10-18T04:21:08.191Z,23.70
2018-10-18T04:22:08.076Z,23.70
2018-10-18T04:24:00.797Z,21.60
2018-10-18T04:25:00.649Z,22.90
2018-10-18T04:26:53.339Z,22.80
2018-10-18T04:27:53.215Z,23.10
2018-10-18T04:29:45.894Z,23.30
2018-10-18T04:30:45.780Z,22.60
2018-10-18T04:32:38.489Z,21.80
2018-10-18T04:33:38.368Z,22.70
2018-10-18T04:35:31.049Z,22.30
2018-10-18T04:36:30.937Z,23.30
2018-10-18T04:38:23.624Z,22.40
2018-10-18T04:39:23.507Z,22.20
2018-10-18T04:41:16.185Z,21.80
2018-10-18T04:42:16.099Z,21.70
2018-10-18T04:44:08.771Z,22.20
2018-10-18T04:45:08.652Z,23.30
2018-10-18T04:47:01.525Z,22.50
2018-10-18T04:48:01.430Z,22.80
2018-10-18T04:49:53.894Z,23.00
2018-10-18T04:50:53.790Z,22.90
2018-10-18T04:52:46.487Z,22.50
2018-10-18T04:53:46.367Z,22.60
2018-10-18T04:55:39.042Z,22.30
2018-10-18T04:56:38.944Z,22.60
2018-10-18T04:58:31.621Z,23.10
2018-10-18T04:59:31.495Z,22.90
2018-10-18T05:01:24.372Z,21.30
2018-10-18T05:02:24.063Z,22.10
2018-10-18T05:04:16.738Z,22.60
2018-10-18T05:05:16.629Z,22.00
2018-10-18T05:07:09.378Z,21.40
2018-10-18T05:08:09.201Z,22.40
2018-10-18T05:10:01.881Z,22.10
2018-10-18T05:11:01.777Z,21.90
2018-10-18T05:12:54.506Z,21.50
2018-10-18T05:13:54.340Z,21.60
2018-10-18T05:15:47.010Z,20.80
2018-10-18T05:16:46.932Z,19.70
2018-10-18T05:18:39.593Z,21.00
2018-10-18T05:19:39.472Z,19.60
2018-10-18T05:21:32.162Z,20.30
2018-10-18T05:22:32.042Z,20.60
2018-10-18T05:24:24.717Z,20.50
2018-10-18T05:25:24.607Z,19.50
2018-10-18T05:27:17.296Z,18.80
2018-10-18T05:28:17.176Z,19.50
2018-10-18T05:30:09.846Z,19.60
2018-10-18T05:31:09.804Z,19.00
2018-10-18T05:33:02.438Z,18.90
2018-10-18T05:34:02.310Z,18.60
2018-10-18T05:35:54.988Z,18.40
2018-10-18T05:36:54.921Z,18.60
2018-10-18T05:38:47.580Z,19.30
2018-10-18T05:39:47.452Z,18.60
2018-10-18T05:41:40.294Z,18.80
2018-10-18T05:42:40.010Z,19.20
2018-10-18T05:44:32.691Z,18.70
2018-10-18T05:45:32.587Z,18.90
2018-10-18T05:47:25.388Z,18.70
2018-10-18T05:48:25.151Z,18.30
2018-10-18T05:50:17.828Z,18.30
2018-10-18T05:51:17.727Z,18.00
2018-10-18T05:53:10.484Z,18.50
2018-10-18T05:54:10.370Z,17.30
2018-10-18T05:56:02.957Z,18.60
2018-10-18T05:57:02.854Z,17.20
2018-10-18T05:58:55.539Z,18.00
2018-10-18T05:59:55.423Z,18.50
2018-10-18T06:01:48.110Z,17.80
2018-10-18T06:02:47.984Z,17.00
2018-10-18T06:04:40.659Z,17.50
2018-10-18T06:05:40.554Z,17.80
2018-10-18T06:07:33.237Z,17.30
2018-10-18T06:08:33.118Z,16.90
2018-10-18T06:10:25.866Z,17.40
2018-10-18T06:11:25.683Z,16.70
2018-10-18T06:13:18.409Z,17.00
2018-10-18T06:14:18.251Z,17.00
2018-10-18T06:16:10.929Z,17.80
2018-10-18T06:17:10.807Z,16.90
2018-10-18T06:19:03.560Z,17.80
2018-10-18T06:20:03.379Z,17.60
2018-10-18T06:21:56.060Z,18.10
2018-10-18T06:22:56.103Z,19.60
2018-10-18T06:24:48.605Z,18.70
2018-10-18T06:25:48.506Z,18.50
2018-10-18T06:27:41.191Z,18.90
2018-10-18T06:28:41.062Z,19.10
2018-10-18T06:30:33.744Z,19.00
2018-10-18T06:31:33.628Z,19.10
2018-10-18T06:33:26.322Z,19.00
2018-10-18T06:34:26.194Z,18.70
2018-10-18T06:36:18.865Z,19.00
2018-10-18T06:37:18.835Z,17.60
2018-10-18T06:39:11.534Z,18.80
2018-10-18T06:40:11.330Z,18.30
2018-10-18T06:42:04.017Z,17.60
2018-10-18T06:43:03.935Z,18.30
2018-10-18T06:44:56.565Z,18.50
2018-10-18T06:45:56.466Z,17.60
2018-10-18T06:47:49.271Z,17.50
2018-10-18T06:48:49.064Z,17.40
2018-10-18T06:50:41.701Z,16.30
2018-10-18T06:51:41.611Z,15.80
2018-10-18T06:53:34.286Z,15.30
2018-10-18T06:54:34.167Z,14.90
2018-10-18T06:56:26.845Z,15.60
2018-10-18T06:57:26.741Z,15.40
2018-10-18T06:59:19.427Z,16.60
2018-10-18T07:00:19.363Z,14.90
2018-10-18T07:02:11.997Z,14.60
2018-10-18T07:03:11.874Z,14.40
2018-10-18T07:05:04.553Z,14.80
2018-10-18T07:06:04.506Z,14.20
2018-10-18T07:07:57.136Z,15.10
2018-10-18T07:08:57.065Z,14.90
2018-10-18T07:10:49.765Z,14.70
2018-10-18T07:11:49.583Z,15.10
2018-10-18T07:13:42.283Z,14.60
2018-10-18T07:14:42.158Z,15.00
2018-10-18T07:16:34.853Z,15.00
2018-10-18T07:17:34.738Z,14.70
2018-10-18T07:19:27.403Z,14.70
2018-10-18T07:20:27.300Z,14.70
2018-10-18T07:22:19.986Z,14.40
2018-10-18T07:23:19.866Z,14.30
2018-10-18T07:25:12.607Z,14.80
2018-10-18T07:26:12.427Z,14.20
2018-10-18T07:28:05.131Z,14.70
2018-10-18T07:29:04.997Z,14.20
2018-10-18T07:30:57.676Z,15.10
2018-10-18T07:31:57.566Z,15.50
2018-10-18T07:33:50.259Z,14.60
2018-10-18T07:34:50.159Z,14.20
2018-10-18T07:36:42.833Z,14.90
2018-10-18T07:37:42.708Z,14.00
2018-10-18T07:39:35.385Z,15.80
2018-10-18T07:40:35.270Z,15.70
2018-10-18T07:42:27.969Z,15.30
2018-10-18T07:43:27.840Z,15.00
2018-10-18T07:45:20.522Z,14.80
2018-10-18T07:46:20.421Z,15.30
2018-10-18T07:48:13.144Z,15.50
2018-10-18T07:49:12.980Z,15.00
2018-10-18T07:51:05.661Z,15.10
2018-10-18T07:52:05.554Z,14.50
2018-10-18T07:53:58.274Z,14.50
2018-10-18T07:54:58.119Z,14.70
2018-10-18T07:56:50.812Z,14.70
2018-10-18T07:57:50.688Z,15.30
2018-10-18T07:59:43.359Z,14.90
2018-10-18T08:00:43.407Z,15.60
2018-10-18T08:02:35.945Z,14.70
2018-10-18T08:03:35.817Z,15.50
2018-10-18T08:05:28.499Z,14.30
2018-10-18T08:06:28.383Z,14.50
2018-10-18T08:08:21.088Z,13.90
2018-10-18T08:09:20.967Z,14.00
2018-10-18T08:11:13.676Z,14.20
2018-10-18T08:12:13.541Z,13.40
2018-10-18T08:14:06.230Z,14.60
2018-10-18T08:15:06.103Z,14.20
2018-10-18T08:16:58.861Z,14.30
2018-10-18T08:17:58.672Z,14.20
2018-10-18T08:19:51.348Z,14.40
2018-10-18T08:20:51.238Z,14.50
2018-10-18T08:22:44.085Z,14.50
2018-10-18T08:23:43.811Z,14.80
2018-10-18T08:25:36.481Z,14.50
2018-10-18T08:26:36.383Z,14.50
2018-10-18T08:28:29.073Z,14.80
2018-10-18T08:29:28.936Z,14.50
2018-10-18T08:31:21.812Z,14.10
2018-10-18T08:32:21.504Z,13.70
2018-10-18T08:34:14.218Z,13.00
2018-10-18T08:35:14.089Z,13.70
2018-10-18T08:37:06.872Z,13.70
2018-10-18T08:38:06.690Z,14.10
2018-10-18T08:39:59.333Z,13.10
2018-10-18T08:40:59.231Z,13.80
2018-10-18T08:42:51.926Z,13.50
2018-10-18T08:43:51.815Z,13.40
2018-10-18T08:45:44.473Z,14.30
2018-10-18T08:46:44.372Z,13.10
2018-10-18T08:48:37.066Z,13.90
2018-10-18T08:49:36.975Z,14.40
2018-10-18T08:51:29.616Z,13.00
2018-10-18T08:52:29.511Z,14.00
2018-10-18T08:54:22.203Z,13.50
2018-10-18T08:55:22.093Z,13.70
2018-10-18T08:57:14.776Z,14.00
2018-10-18T08:58:14.654Z,12.90
2018-10-18T09:00:07.329Z,13.40
2018-10-18T09:01:07.250Z,13.60
2018-10-18T09:02:59.909Z,14.10
2018-10-18T09:03:59.789Z,14.00
2018-10-18T09:05:52.472Z,13.90
2018-10-18T09:06:52.401Z,13.90
2018-10-18T09:08:45.081Z,13.50
2018-10-18T09:09:44.956Z,13.00
2018-10-18T09:11:37.628Z,13.20
2018-10-18T09:12:37.528Z,13.60
2018-10-18T09:14:30.218Z,14.00
2018-10-18T09:15:30.095Z,13.20
2018-10-18T09:17:22.798Z,13.80
2018-10-18T09:18:22.676Z,15.10
2018-10-18T09:20:15.352Z,14.20
2018-10-18T09:21:15.242Z,14.60
2018-10-18T09:23:07.949Z,14.90
2018-10-18T09:24:07.831Z,15.00
2018-10-18T09:26:00.509Z,14.70
2018-10-18T09:27:00.402Z,15.20
2018-10-18T09:28:53.100Z,14.90
2018-10-18T09:29:52.975Z,14.90
2018-10-18T09:31:45.652Z,15.00
2018-10-18T09:32:45.548Z,14.40
2018-10-18T09:34:38.243Z,14.40
2018-10-18T09:35:38.118Z,14.00
2018-10-18T09:37:30.816Z,13.70
2018-10-18T09:38:30.788Z,13.40
2018-10-18T09:40:23.367Z,13.80
2018-10-18T09:41:23.266Z,13.90
2018-10-18T09:43:16.119Z,14.00
2018-10-18T09:44:16.062Z,12.60
2018-10-18T09:46:08.612Z,12.90
2018-10-18T09:47:08.500Z,13.00
2018-10-18T09:49:01.234Z,12.70
2018-10-18T09:50:01.083Z,12.20
2018-10-18T09:51:53.779Z,12.80
2018-10-18T09:52:53.669Z,12.60
2018-10-18T09:54:46.330Z,13.30
2018-10-18T09:55:46.314Z,13.60
2018-10-18T09:57:38.954Z,12.70
2018-10-18T09:58:38.815Z,13.10
2018-10-18T10:00:31.514Z,13.20
2018-10-18T10:01:31.407Z,13.60
2018-10-18T10:03:24.104Z,13.40
2018-10-18T10:04:24.066Z,13.10
2018-10-18T10:06:16.667Z,13.70
2018-10-18T10:07:16.659Z,13.80
2018-10-18T10:09:09.260Z,13.70
2018-10-18T10:10:09.136Z,13.60
2018-10-18T10:12:01.826Z,13.40
2018-10-18T10:13:01.767Z,13.10
2018-10-18T10:14:54.398Z,13.50
2018-10-18T10:15:54.298Z,13.30
2018-10-18T10:17:47.092Z,14.20
2018-10-18T10:18:46.870Z,13.80
2018-10-18T10:20:39.555Z,13.80
2018-10-18T10:21:39.452Z,13.50
2018-10-18T10:23:32.142Z,15.60
2018-10-18T10:24:32.093Z,15.50
2018-10-18T10:26:24.710Z,16.60
2018-10-18T10:27:24.603Z,15.70
2018-10-18T10:29:17.298Z,16.40
2018-10-18T10:30:17.242Z,15.80
2018-10-18T10:32:09.865Z,14.80
2018-10-18T10:33:09.867Z,15.10
2018-10-18T10:35:02.514Z,15.00
2018-10-18T10:36:02.335Z,15.50
2018-10-18T10:37:55.033Z,14.20
2018-10-18T10:38:54.916Z,12.80
2018-10-18T10:40:47.598Z,12.00
2018-10-18T10:41:47.498Z,12.00
2018-10-18T10:43:40.199Z,12.50
2018-10-18T10:44:40.100Z,13.10
2018-10-18T10:46:32.772Z,13.20
2018-10-18T10:47:32.670Z,14.00
2018-10-18T10:49:25.361Z,12.40
2018-10-18T10:50:25.236Z,12.20
2018-10-18T10:52:18.030Z,12.00
2018-10-18T10:53:17.807Z,10.90
2018-10-18T10:55:10.510Z,9.70
2018-10-18T10:56:10.423Z,8.90
2018-10-18T10:58:03.127Z,10.00
2018-10-18T10:59:03.067Z,8.90
2018-10-18T11:00:55.640Z,7.90
2018-10-18T11:01:55.562Z,7.40
2018-10-18T11:03:48.740Z,7.60
2018-10-18T11:04:48.608Z,7.50
2018-10-18T11:06:41.294Z,7.00
2018-10-18T11:07:41.188Z,6.90
2018-10-18T11:09:33.936Z,6.90
2018-10-18T11:10:33.767Z,7.50
2018-10-18T11:12:26.464Z,8.10
2018-10-18T11:13:26.346Z,7.10
2018-10-18T11:15:19.136Z,5.60
2018-10-18T11:16:18.917Z,5.30
2018-10-18T11:18:11.699Z,5.70
2018-10-18T11:19:11.503Z,5.30
2018-10-18T11:21:04.234Z,5.40
2018-10-18T11:22:04.088Z,5.50
2018-10-18T11:23:56.816Z,5.00
2018-10-18T11:24:56.700Z,4.80
2018-10-18T11:26:49.348Z,5.30
2018-10-18T11:27:49.246Z,5.50
2018-10-18T11:29:41.952Z,5.20
2018-10-18T11:30:41.831Z,5.10
2018-10-18T11:32:34.512Z,5.40
2018-10-18T11:33:34.404Z,5.30
2018-10-18T11:35:27.120Z,5.90
2018-10-18T11:36:27.018Z,6.70
2018-10-18T11:38:19.690Z,5.80
2018-10-18T11:39:19.555Z,6.00
2018-10-18T11:41:12.250Z,6.10
2018-10-18T11:42:12.190Z,6.00
2018-10-18T11:44:04.867Z,6.50
2018-10-18T11:45:04.720Z,6.40
2018-10-18T11:46:57.415Z,6.20
2018-10-18T11:47:57.314Z,7.10
2018-10-18T11:49:50.013Z,7.70
2018-10-18T11:50:49.891Z,7.30
2018-10-18T11:52:42.580Z,7.50
2018-10-18T11:53:42.461Z,7.70
2018-10-18T11:55:35.140Z,6.90
2018-10-18T11:56:35.040Z,7.20
2018-10-18T11:58:27.749Z,6.80
2018-10-18T11:59:27.623Z,6.80
2018-10-18T12:01:20.420Z,8.20
2018-10-18T12:02:20.364Z,8.10
2018-10-18T12:04:12.900Z,8.40
2018-10-18T12:05:12.792Z,8.50
2018-10-18T12:07:05.470Z,8.80
2018-10-18T12:08:05.425Z,8.60
2018-10-18T12:09:58.046Z,8.30
2018-10-18T12:10:57.926Z,8.80
2018-10-18T12:12:50.630Z,8.70
2018-10-18T12:13:50.504Z,8.80
2018-10-18T12:15:43.186Z,8.60
2018-10-18T12:16:43.085Z,8.10
2018-10-18T12:18:35.782Z,8.30
2018-10-18T12:19:35.659Z,8.50
2018-10-18T12:21:28.359Z,10.60
2018-10-18T12:22:28.244Z,9.90
2018-10-18T12:24:21.094Z,8.10
2018-10-18T12:25:20.834Z,7.80
2018-10-18T12:27:13.519Z,7.50
2018-10-18T12:28:13.418Z,7.90
2018-10-18T12:30:06.114Z,7.80
2018-10-18T12:31:05.987Z,8.60
2018-10-18T12:32:58.686Z,7.90
2018-10-18T12:33:58.564Z,7.40
2018-10-18T12:35:51.253Z,6.00
2018-10-18T12:36:51.140Z,6.40
2018-10-18T12:38:43.837Z,5.70
2018-10-18T12:39:43.867Z,5.80
2018-10-18T12:41:36.512Z,5.70
2018-10-18T12:42:36.298Z,5.40
2018-10-18T12:44:29.007Z,5.80
2018-10-18T12:45:28.887Z,5.20
2018-10-18T12:47:21.715Z,4.40
2018-10-18T12:48:21.537Z,4.20
2018-10-18T12:50:14.227Z,4.20
2018-10-18T12:51:14.027Z,4.00
2018-10-18T12:53:06.714Z,4.20
2018-10-18T12:54:06.706Z,4.00
2018-10-18T12:55:59.356Z,3.80
2018-10-18T12:56:59.180Z,4.40
2018-10-18T12:58:51.875Z,4.20
2018-10-18T12:59:51.751Z,4.30
2018-10-18T13:01:44.448Z,3.70
2018-10-18T13:02:44.333Z,3.50
2018-10-18T13:04:37.023Z,3.30
2018-10-18T13:05:36.908Z,3.20
2018-10-18T13:07:29.577Z,3.40
2018-10-18T13:08:29.480Z,3.40
2018-10-18T13:10:22.681Z,4.10
2018-10-18T13:11:22.536Z,3.50
2018-10-18T13:13:15.228Z,3.20
2018-10-18T13:14:15.232Z,3.30
2018-10-18T13:16:07.787Z,3.00
2018-10-18T13:17:07.680Z,2.70
2018-10-18T13:19:00.371Z,2.90
2018-10-18T13:20:00.266Z,2.80
2018-10-18T13:21:52.920Z,2.80
2018-10-18T13:22:52.820Z,2.30
2018-10-18T13:24:45.507Z,2.70
2018-10-18T13:25:45.399Z,2.70
2018-10-18T13:27:38.089Z,3.40
2018-10-18T13:28:37.957Z,2.90
2018-10-18T13:30:30.657Z,3.20
2018-10-18T13:31:30.539Z,3.20
2018-10-18T13:33:23.232Z,3.60
2018-10-18T13:34:23.107Z,3.80
2018-10-18T13:36:15.874Z,3.70
2018-10-18T13:37:15.682Z,3.70
2018-10-18T13:39:08.398Z,4.80
2018-10-18T13:40:08.248Z,5.40
2018-10-18T13:42:00.954Z,6.20
2018-10-18T13:43:00.818Z,6.00
2018-10-18T13:44:53.519Z,6.20
2018-10-18T13:45:53.390Z,6.10
2018-10-18T13:47:46.062Z,6.60
2018-10-18T13:48:45.952Z,6.50
2018-10-18T13:50:38.667Z,6.50
2018-10-18T13:51:38.545Z,6.90
2018-10-18T13:53:31.233Z,6.50
2018-10-18T13:54:31.107Z,6.70
2018-10-18T13:56:23.792Z,6.80
2018-10-18T13:57:23.684Z,6.70
2018-10-18T13:59:16.458Z,6.90
2018-10-18T14:00:16.313Z,7.30
2018-10-18T14:02:08.948Z,7.20
2018-10-18T14:03:08.831Z,7.40
2018-10-18T14:05:01.564Z,7.80
2018-10-18T14:06:01.393Z,7.40
2018-10-18T14:07:54.096Z,7.40
2018-10-18T14:08:53.965Z,7.70
2018-10-18T14:10:46.659Z,7.10
2018-10-18T14:11:46.534Z,7.20
2018-10-18T14:13:39.225Z,7.80
2018-10-18T14:14:39.113Z,7.70
2018-10-18T14:16:31.778Z,7.50
2018-10-18T14:17:31.781Z,8.00
2018-10-18T14:19:24.370Z,8.10
2018-10-18T14:20:24.258Z,7.80
2018-10-18T14:22:16.930Z,8.50
2018-10-18T14:23:16.840Z,8.70
2018-10-18T14:25:09.662Z,8.60
2018-10-18T14:26:09.467Z,8.40
2018-10-18T14:28:02.072Z,8.30
2018-10-18T14:29:02.038Z,8.90
2018-10-18T14:30:54.691Z,8.10
2018-10-18T14:31:54.545Z,8.70
2018-10-18T14:33:47.220Z,8.90
2018-10-18T14:34:47.100Z,8.80
2018-10-18T14:36:39.773Z,9.10
2018-10-18T14:37:39.670Z,9.30
2018-10-18T14:39:32.368Z,9.10
2018-10-18T14:40:32.292Z,8.40
2018-10-18T14:42:24.914Z,9.00
2018-10-18T14:43:24.816Z,9.10
2018-10-18T14:45:17.503Z,8.50
2018-10-18T14:46:17.381Z,9.10
2018-10-18T14:48:10.052Z,8.60
2018-10-18T14:49:09.948Z,8.30
2018-10-18T14:51:02.637Z,8.80
2018-10-18T14:52:02.605Z,8.60
2018-10-18T14:53:55.207Z,9.10
2018-10-18T14:54:55.080Z,9.00
2018-10-18T14:56:47.763Z,8.90
2018-10-18T14:57:47.657Z,8.80
2018-10-18T14:59:40.353Z,9.60
2018-10-18T15:00:40.233Z,9.60
2018-10-18T15:02:32.912Z,9.40
2018-10-18T15:03:32.806Z,9.10
2018-10-18T15:05:25.511Z,9.20
2018-10-18T15:06:25.371Z,9.30
2018-10-18T15:08:18.131Z,9.00
2018-10-18T15:09:17.932Z,9.30
2018-10-18T15:11:10.699Z,9.00
2018-10-18T15:12:10.507Z,9.10
2018-10-18T15:14:03.262Z,9.70
2018-10-18T15:15:03.094Z,9.30
2018-10-18T15:16:55.829Z,8.60
2018-10-18T15:17:55.670Z,8.50
2018-10-18T15:19:48.516Z,6.90
2018-10-18T15:20:48.236Z,7.50
2018-10-18T15:22:40.919Z,6.20
2018-10-18T15:23:40.810Z,6.30
2018-10-18T15:25:33.766Z,6.20
2018-10-18T15:26:33.579Z,6.20
2018-10-18T15:28:26.054Z,5.70
2018-10-18T15:29:25.944Z,5.40
2018-10-18T15:31:18.641Z,6.00
2018-10-18T15:32:18.567Z,5.60
2018-10-18T15:34:11.219Z,6.10
2018-10-18T15:35:11.225Z,6.10
2018-10-18T15:37:03.759Z,6.10
2018-10-18T15:38:03.742Z,6.20
2018-10-18T15:39:56.343Z,5.70
2018-10-18T15:40:56.316Z,5.90
2018-10-18T15:42:48.915Z,5.60
2018-10-18T15:43:48.796Z,6.00
2018-10-18T15:45:41.510Z,5.60
2018-10-18T15:46:41.380Z,5.90
2018-10-18T15:48:34.065Z,5.30
2018-10-18T15:49:33.944Z,5.30
2018-10-18T15:51:26.619Z,6.30
2018-10-18T15:52:26.519Z,6.00
2018-10-18T15:54:19.333Z,5.60
2018-10-18T15:55:19.084Z,6.00
2018-10-18T15:57:11.809Z,5.80
2018-10-18T15:58:11.688Z,5.60
2018-10-18T16:00:04.349Z,5.30
2018-10-18T16:01:04.215Z,5.50
2018-10-18T16:02:56.894Z,5.30
2018-10-18T16:03:56.782Z,5.80
2018-10-18T16:05:49.482Z,5.80
2018-10-18T16:06:49.352Z,5.90
2018-10-18T16:08:42.149Z,5.60
2018-10-18T16:09:41.931Z,5.70
2018-10-18T16:11:34.630Z,5.70
2018-10-18T16:12:34.523Z,5.90
2018-10-18T16:14:27.234Z,6.30
2018-10-18T16:15:27.102Z,5.60
2018-10-18T16:17:19.882Z,5.70
2018-10-18T16:18:19.685Z,5.60
2018-10-18T16:20:12.473Z,5.40
2018-10-18T16:21:12.283Z,5.70
2018-10-18T16:23:04.965Z,4.90
2018-10-18T16:24:04.860Z,5.20
2018-10-18T16:25:57.598Z,5.60
2018-10-18T16:26:57.389Z,5.30
2018-10-18T16:28:50.076Z,5.50
2018-10-18T16:29:49.959Z,5.00
2018-10-18T16:31:42.632Z,5.20
2018-10-18T16:32:42.529Z,5.10
2018-10-18T16:34:35.213Z,4.70
2018-10-18T16:35:35.093Z,5.20
2018-10-18T16:37:27.779Z,4.60
2018-10-18T16:38:27.673Z,5.10
2018-10-18T16:40:21.072Z,4.90
2018-10-18T16:41:20.426Z,5.20
2018-10-18T16:43:12.916Z,10.50
2018-10-18T16:44:12.867Z,7.30
2018-10-18T16:46:05.519Z,6.90
2018-10-18T16:47:05.361Z,7.10
2018-10-18T16:48:58.064Z,6.50
2018-10-18T16:49:57.991Z,6.80
2018-10-18T16:51:50.623Z,6.40
2018-10-18T16:52:50.519Z,6.00
2018-10-18T16:54:43.311Z,6.00
2018-10-18T16:55:43.079Z,5.70
2018-10-18T16:57:35.777Z,5.60
2018-10-18T16:58:35.676Z,5.20
2018-10-18T17:00:28.359Z,5.20
2018-10-18T17:01:28.232Z,5.60
2018-10-18T17:03:20.906Z,5.80
2018-10-18T17:04:20.952Z,6.00
2018-10-18T17:06:13.565Z,5.80
2018-10-18T17:07:13.369Z,5.30
2018-10-18T17:09:06.057Z,6.00
2018-10-18T17:10:06.044Z,6.00
2018-10-18T17:11:58.675Z,5.50
2018-10-18T17:12:58.507Z,5.70
2018-10-18T17:14:51.192Z,5.80
2018-10-18T17:15:51.086Z,5.40
2018-10-18T17:17:43.819Z,5.30
2018-10-18T17:18:43.660Z,5.50
2018-10-18T17:20:36.368Z,5.80
2018-10-18T17:21:36.215Z,6.00
2018-10-18T17:23:29.035Z,5.20
2018-10-18T17:24:28.789Z,5.50
2018-10-18T17:26:21.506Z,5.60
2018-10-18T17:27:21.531Z,5.30
2018-10-18T17:29:14.058Z,5.40
2018-10-18T17:30:13.984Z,5.40
2018-10-18T17:32:06.624Z,5.10
2018-10-18T17:33:06.495Z,6.10
2018-10-18T17:34:59.196Z,5.80
2018-10-18T17:35:59.115Z,5.50
2018-10-18T17:37:51.785Z,4.30
2018-10-18T17:38:51.627Z,4.20
2018-10-18T17:40:44.399Z,4.00
2018-10-18T17:41:44.207Z,4.50
2018-10-18T17:43:36.870Z,3.90
2018-10-18T17:44:36.763Z,3.60
2018-10-18T17:46:29.449Z,3.50
2018-10-18T17:47:29.319Z,3.80
2018-10-18T17:49:22.012Z,3.50
2018-10-18T17:50:21.892Z,3.50
2018-10-18T17:52:14.617Z,3.30
2018-10-18T17:53:14.462Z,3.20
2018-10-18T17:55:07.143Z,3.50
2018-10-18T17:56:07.076Z,3.10
2018-10-18T17:57:59.742Z,3.30
2018-10-18T17:58:59.582Z,3.30
2018-10-18T18:00:52.277Z,3.20
2018-10-18T18:01:52.171Z,3.20
2018-10-18T18:03:44.846Z,3.40
2018-10-18T18:04:44.724Z,3.60
2018-10-18T18:06:37.517Z,3.20
2018-10-18T18:07:37.365Z,3.30
2018-10-18T18:09:30.960Z,3.20
2018-10-18T18:10:30.865Z,3.40
2018-10-18T18:12:23.511Z,3.40
2018-10-18T18:13:23.405Z,3.70
2018-10-18T18:15:16.173Z,3.20
2018-10-18T18:16:16.004Z,3.40
2018-10-18T18:18:08.656Z,3.30
2018-10-18T18:19:08.554Z,3.30
2018-10-18T18:21:01.240Z,3.40
2018-10-18T18:22:01.163Z,3.20
2018-10-18T18:23:53.824Z,3.60
2018-10-18T18:24:53.700Z,3.20
2018-10-18T18:26:46.381Z,3.40
2018-10-18T18:27:46.273Z,3.40
2018-10-18T18:29:39.003Z,3.60
2018-10-18T18:30:38.834Z,3.00
2018-10-18T18:32:31.503Z,3.30
2018-10-18T18:33:31.405Z,3.50
2018-10-18T18:35:24.088Z,3.50
2018-10-18T18:36:23.962Z,3.30
2018-10-18T18:38:16.636Z,3.30
2018-10-18T18:39:16.528Z,3.20
2018-10-18T18:41:09.217Z,4.00
2018-10-18T18:42:09.089Z,3.40
2018-10-18T18:44:01.780Z,3.50
2018-10-18T18:45:01.763Z,3.60
2018-10-18T18:46:54.332Z,3.90
2018-10-18T18:47:54.228Z,3.50
2018-10-18T18:49:46.906Z,3.50
2018-10-18T18:50:46.847Z,3.50
2018-10-18T18:52:39.470Z,3.50
2018-10-18T18:53:39.359Z,3.80
2018-10-18T18:55:32.062Z,3.20
2018-10-18T18:56:31.934Z,3.70
2018-10-18T18:58:24.613Z,3.80
2018-10-18T18:59:24.509Z,3.60
2018-10-18T19:01:17.207Z,3.70
2018-10-18T19:02:17.069Z,3.70
2018-10-18T19:04:09.775Z,3.40
2018-10-18T19:05:09.627Z,3.50
2018-10-18T19:07:02.304Z,4.10
2018-10-18T19:08:02.189Z,3.80
2018-10-18T19:09:54.878Z,3.70
2018-10-18T19:10:54.758Z,4.30
2018-10-18T19:12:47.427Z,3.70
2018-10-18T19:13:47.374Z,3.80
2018-10-18T19:15:40.019Z,3.50
2018-10-18T19:16:39.886Z,3.70
2018-10-18T19:18:32.577Z,3.90
2018-10-18T19:19:32.452Z,3.70
2018-10-18T19:21:25.138Z,4.40
2018-10-18T19:22:25.019Z,4.40
2018-10-18T19:24:17.715Z,3.80
2018-10-18T19:25:17.578Z,3.70
2018-10-18T19:27:10.252Z,3.60
2018-10-18T19:28:10.142Z,4.00
2018-10-18T19:30:02.832Z,3.80
2018-10-18T19:31:02.706Z,3.60
2018-10-18T19:32:55.380Z,4.10
2018-10-18T19:33:55.270Z,3.70
2018-10-18T19:35:48.040Z,3.80
2018-10-18T19:36:47.934Z,4.10
2018-10-18T19:38:40.586Z,3.20
2018-10-18T19:39:40.479Z,3.70
2018-10-18T19:41:33.181Z,4.10
2018-10-18T19:42:33.052Z,4.10
2018-10-18T19:44:25.744Z,3.90
2018-10-18T19:45:25.629Z,4.30
2018-10-18T19:47:18.291Z,3.60
2018-10-18T19:48:18.181Z,3.70
2018-10-18T19:50:10.992Z,4.20
2018-10-18T19:51:10.757Z,3.70
2018-10-18T19:53:03.496Z,3.80
2018-10-18T19:54:03.316Z,3.80
2018-10-18T19:55:56.057Z,4.50
2018-10-18T19:56:55.881Z,4.10
2018-10-18T19:58:48.579Z,3.90
2018-10-18T19:59:48.469Z,3.60
2018-10-18T20:01:41.154Z,4.20
2018-10-18T20:02:41.028Z,3.90
2018-10-18T20:04:34.712Z,4.40
2018-10-18T20:05:34.578Z,4.50
2018-10-18T20:07:27.266Z,4.50
2018-10-18T20:08:27.154Z,3.70
2018-10-18T20:10:19.841Z,3.50
2018-10-18T20:11:19.725Z,4.00
2018-10-18T20:13:12.385Z,4.10
2018-10-18T20:14:12.359Z,4.00
2018-10-18T20:16:04.976Z,4.00
2018-10-18T20:17:04.857Z,3.90
2018-10-18T20:18:57.533Z,4.40
2018-10-18T20:19:57.477Z,4.40
2018-10-18T20:21:50.109Z,6.00
2018-10-18T20:22:49.982Z,5.30
2018-10-18T20:24:42.753Z,6.00
2018-10-18T20:25:42.665Z,7.20
2018-10-18T20:27:35.228Z,7.50
2018-10-18T20:28:35.120Z,6.70
2018-10-18T20:30:27.820Z,5.40
2018-10-18T20:31:27.689Z,5.90
2018-10-18T20:33:20.354Z,6.60
2018-10-18T20:34:20.245Z,6.10
2018-10-18T20:36:12.929Z,5.10
2018-10-18T20:37:12.809Z,4.80
2018-10-18T20:39:05.587Z,4.90
2018-10-18T20:40:05.366Z,4.50
2018-10-18T20:41:58.036Z,4.40
2018-10-18T20:42:57.931Z,4.50
2018-10-18T20:44:50.614Z,4.50
2018-10-18T20:45:50.496Z,4.40
2018-10-18T20:47:43.241Z,5.40
2018-10-18T20:48:43.054Z,5.40
2018-10-18T20:50:35.749Z,5.60
2018-10-18T20:51:35.628Z,5.40
2018-10-18T20:53:28.297Z,4.70
2018-10-18T20:54:28.177Z,5.30
2018-10-18T20:56:20.865Z,5.00
2018-10-18T20:57:20.741Z,5.20
2018-10-18T20:59:13.432Z,4.90
2018-10-18T21:00:13.360Z,5.10
2018-10-18T21:02:05.977Z,4.10
2018-10-18T21:03:05.887Z,4.60
2018-10-18T21:04:58.561Z,6.10
2018-10-18T21:05:58.468Z,5.70
2018-10-18T21:07:51.112Z,8.80
2018-10-18T21:08:50.995Z,9.90
2018-10-18T21:10:43.683Z,6.20
2018-10-18T21:11:43.568Z,5.80
2018-10-18T21:13:36.240Z,5.80
2018-10-18T21:14:36.115Z,5.30
2018-10-18T21:16:28.805Z,5.60
2018-10-18T21:17:28.679Z,5.20
2018-10-18T21:19:21.370Z,5.20
2018-10-18T21:20:21.247Z,5.40
2018-10-18T21:22:13.921Z,5.10
2018-10-18T21:23:13.904Z,5.20
2018-10-18T21:25:06.496Z,5.30
2018-10-18T21:26:06.394Z,5.20
2018-10-18T21:27:59.043Z,6.10
2018-10-18T21:28:58.947Z,5.20
2018-10-18T21:30:51.626Z,5.80
2018-10-18T21:31:51.488Z,5.70
2018-10-18T21:33:44.164Z,8.00
2018-10-18T21:34:44.170Z,9.10
2018-10-18T21:36:36.745Z,7.60
2018-10-18T21:37:36.617Z,7.00
2018-10-18T21:39:29.318Z,7.10
2018-10-18T21:40:29.193Z,6.70
2018-10-18T21:42:21.857Z,6.60
2018-10-18T21:43:21.756Z,6.90
2018-10-18T21:45:14.516Z,6.70
2018-10-18T21:46:14.317Z,6.40
2018-10-18T21:48:06.986Z,6.30
2018-10-18T21:49:06.886Z,6.50
2018-10-18T21:50:59.600Z,6.70
2018-10-18T21:51:59.443Z,5.90
2018-10-18T21:53:52.115Z,6.50
2018-10-18T21:54:52.000Z,6.40
2018-10-18T21:56:44.683Z,6.30
2018-10-18T21:57:44.566Z,5.90
2018-10-18T21:59:37.247Z,5.90
